createdAt,value
2023-06-06T00:00:25.160Z,19.60
2023-06-06T00:02:52.882Z,19.60
2023-06-06T00:05:22.366Z,19.60
2023-06-06T00:07:50.114Z,19.50
2023-06-06T00:10:17.538Z,19.40
2023-06-06T00:12:45.815Z,19.40
2023-06-06T00:15:14.913Z,19.40
2023-06-06T00:17:45.675Z,19.40
2023-06-06T00:20:14.598Z,19.30
2023-06-06T00:22:42.777Z,19.30
2023-06-06T00:25:10.769Z,19.30
2023-06-06T00:27:38.341Z,19.30
2023-06-06T00:30:07.132Z,19.20
2023-06-06T00:32:34.620Z,19.20
2023-06-06T00:35:04.045Z,19.20
2023-06-06T00:37:31.368Z,19.10
2023-06-06T00:39:58.662Z,19.10
2023-06-06T00:42:25.922Z,19.00
2023-06-06T00:44:53.178Z,19.00
2023-06-06T00:47:20.822Z,19.00
2023-06-06T00:49:49.821Z,19.00
2023-06-06T00:52:21.031Z,18.90
2023-06-06T00:54:49.213Z,18.90
2023-06-06T00:57:19.419Z,18.90
2023-06-06T00:59:47.916Z,18.90
2023-06-06T01:02:18.609Z,18.80
2023-06-06T01:04:46.364Z,18.80
2023-06-06T01:07:18.271Z,18.80
2023-06-06T01:09:49.176Z,18.80
2023-06-06T01:12:26.269Z,18.80
2023-06-06T01:14:59.746Z,18.70
2023-06-06T01:17:28.922Z,18.70
2023-06-06T01:19:57.343Z,18.60
2023-06-06T01:22:28.337Z,18.60
2023-06-06T01:24:57.362Z,18.60
2023-06-06T01:27:25.310Z,18.60
2023-06-06T01:29:52.688Z,18.60
2023-06-06T01:32:28.015Z,18.50
2023-06-06T01:35:07.164Z,18.50
2023-06-06T01:37:46.201Z,18.50
2023-06-06T01:40:16.570Z,18.50
2023-06-06T01:42:48.008Z,18.40
2023-06-06T01:45:18.115Z,18.50
2023-06-06T01:47:46.211Z,18.40
2023-06-06T01:50:13.756Z,18.40
2023-06-06T01:52:42.340Z,18.40
2023-06-06T01:55:10.557Z,18.40
2023-06-06T01:57:37.920Z,18.40
2023-06-06T02:00:09.512Z,18.40
2023-06-06T02:02:43.294Z,18.30
2023-06-06T02:05:10.899Z,18.30
2023-06-06T02:07:38.556Z,18.30
2023-06-06T02:10:09.910Z,18.30
2023-06-06T02:12:38.239Z,18.30
2023-06-06T02:15:06.834Z,18.20
2023-06-06T02:17:34.227Z,18.20
2023-06-06T02:20:01.582Z,18.20
2023-06-06T02:22:29.237Z,18.20
2023-06-06T02:24:57.012Z,18.10
2023-06-06T02:27:25.665Z,18.10
2023-06-06T02:29:52.954Z,18.10
2023-06-06T02:32:21.515Z,18.10
2023-06-06T02:34:48.836Z,18.10
2023-06-06T02:37:16.563Z,18.10
2023-06-06T02:39:44.234Z,18.00
2023-06-06T02:42:11.614Z,18.00
2023-06-06T02:44:40.540Z,18.00
2023-06-06T02:47:08.191Z,18.00
2023-06-06T02:49:35.480Z,17.90
2023-06-06T02:52:03.461Z,17.90
2023-06-06T02:54:30.796Z,17.90
2023-06-06T02:56:58.102Z,17.90
2023-06-06T02:59:25.343Z,17.90
2023-06-06T03:01:54.119Z,17.80
2023-06-06T03:04:22.665Z,17.80
2023-06-06T03:06:50.020Z,17.80
2023-06-06T03:09:17.377Z,17.80
2023-06-06T03:11:44.644Z,17.70
2023-06-06T03:14:12.645Z,17.70
2023-06-06T03:16:41.671Z,17.70
2023-06-06T03:19:13.104Z,17.70
2023-06-06T03:21:40.604Z,17.70
2023-06-06T03:24:08.561Z,17.70
2023-06-06T03:26:37.647Z,17.60
2023-06-06T03:29:05.079Z,17.60
2023-06-06T03:31:35.011Z,17.60
2023-06-06T03:34:02.788Z,17.60
2023-06-06T03:36:34.423Z,17.60
2023-06-06T03:39:03.331Z,17.50
2023-06-06T03:41:34.424Z,17.50
2023-06-06T03:44:02.705Z,17.50
2023-06-06T03:46:30.784Z,17.50
2023-06-06T03:48:59.430Z,17.50
2023-06-06T03:51:26.681Z,17.40
2023-06-06T03:53:55.428Z,17.40
2023-06-06T03:56:24.897Z,17.40
2023-06-06T03:58:52.348Z,17.40
2023-06-06T04:01:22.247Z,17.40
2023-06-06T04:03:49.749Z,17.40
2023-06-06T04:06:17.090Z,17.40
2023-06-06T04:08:44.342Z,17.40
2023-06-06T04:11:12.987Z,17.30
2023-06-06T04:13:41.255Z,17.30
2023-06-06T04:16:08.621Z,17.30
2023-06-06T04:18:37.808Z,17.30
2023-06-06T04:21:05.159Z,17.30
2023-06-06T04:23:32.820Z,17.30
2023-06-06T04:26:03.799Z,17.30
2023-06-06T04:28:33.199Z,17.30
2023-06-06T04:31:01.120Z,17.30
2023-06-06T04:33:31.325Z,17.30
2023-06-06T04:35:58.846Z,17.40
2023-06-06T04:38:26.363Z,17.40
2023-06-06T04:41:24.730Z,17.40
2023-06-06T04:43:45.120Z,17.40
2023-06-06T04:46:12.473Z,17.40
2023-06-06T04:48:39.785Z,17.50
2023-06-06T04:51:07.283Z,17.50
2023-06-06T04:53:43.491Z,17.50
2023-06-06T04:56:11.187Z,17.60
2023-06-06T04:58:40.067Z,17.60
2023-06-06T05:01:09.069Z,17.70
2023-06-06T05:03:36.566Z,17.70
2023-06-06T05:06:04.190Z,17.80
2023-06-06T05:08:34.074Z,17.80
2023-06-06T05:11:01.324Z,17.90
2023-06-06T05:13:28.576Z,17.90
2023-06-06T05:15:55.961Z,17.90
2023-06-06T05:18:25.265Z,18.00
2023-06-06T05:20:52.524Z,18.00
2023-06-06T05:23:19.774Z,18.00
2023-06-06T05:25:46.974Z,18.10
2023-06-06T05:28:14.299Z,18.10
2023-06-06T05:30:41.584Z,18.20
2023-06-06T05:33:09.738Z,18.30
2023-06-06T05:35:38.426Z,18.30
2023-06-06T05:38:06.604Z,18.40
2023-06-06T05:40:33.871Z,18.40
2023-06-06T05:43:01.139Z,18.50
2023-06-06T05:45:28.540Z,18.60
2023-06-06T05:47:55.821Z,18.70
2023-06-06T05:50:23.096Z,18.70
2023-06-06T05:52:51.673Z,18.90
2023-06-06T05:55:29.085Z,19.00
2023-06-06T05:57:56.827Z,19.10
2023-06-06T06:00:25.133Z,19.20
2023-06-06T06:02:53.881Z,19.30
2023-06-06T06:05:21.179Z,19.40
2023-06-06T06:07:53.728Z,19.50
2023-06-06T06:10:22.625Z,19.50
2023-06-06T06:12:49.870Z,19.60
2023-06-06T06:15:17.116Z,19.70
2023-06-06T06:17:44.468Z,19.80
2023-06-06T06:20:15.937Z,19.90
2023-06-06T06:22:43.887Z,20.00
2023-06-06T06:25:14.645Z,20.00
2023-06-06T06:27:44.596Z,20.10
2023-06-06T06:30:13.155Z,20.20
2023-06-06T06:32:44.542Z,20.30
2023-06-06T06:35:12.060Z,20.40
2023-06-06T06:37:42.457Z,20.40
2023-06-06T06:40:28.677Z,20.50
2023-06-06T06:43:10.700Z,20.50
2023-06-06T06:45:53.570Z,20.60
2023-06-06T06:48:21.158Z,20.60
2023-06-06T06:50:49.739Z,20.60
2023-06-06T06:53:18.407Z,20.70
2023-06-06T06:55:57.420Z,20.70
2023-06-06T06:58:35.738Z,20.70
2023-06-06T07:01:04.850Z,20.80
2023-06-06T07:03:38.473Z,20.80
2023-06-06T07:06:08.900Z,20.90
2023-06-06T07:08:36.473Z,21.00
2023-06-06T07:11:05.172Z,21.00
2023-06-06T07:13:34.517Z,21.10
2023-06-06T07:16:10.140Z,21.10
2023-06-06T07:18:39.894Z,21.20
2023-06-06T07:21:54.194Z,21.30
2023-06-06T07:24:25.565Z,21.40
2023-06-06T07:26:56.594Z,21.40
2023-06-06T07:29:27.796Z,21.40
2023-06-06T07:31:56.256Z,21.50
2023-06-06T07:34:23.965Z,21.50
2023-06-06T07:36:51.627Z,21.50
2023-06-06T07:39:18.941Z,21.60
2023-06-06T07:41:48.172Z,21.60
2023-06-06T07:44:17.655Z,21.70
2023-06-06T07:46:47.151Z,21.80
2023-06-06T07:49:14.653Z,21.80
2023-06-06T07:51:42.187Z,21.80
2023-06-06T07:54:09.666Z,21.90
2023-06-06T07:56:38.278Z,22.00
2023-06-06T07:59:05.748Z,22.00
2023-06-06T08:01:35.483Z,22.00
2023-06-06T08:04:08.439Z,22.00
2023-06-06T08:06:39.780Z,22.00
2023-06-06T08:09:09.853Z,22.10
2023-06-06T08:11:37.140Z,22.10
2023-06-06T08:14:04.405Z,22.20
2023-06-06T08:16:32.040Z,22.20
2023-06-06T08:18:59.320Z,22.30
2023-06-06T08:21:27.868Z,22.30
2023-06-06T08:23:57.108Z,22.40
2023-06-06T08:26:26.304Z,22.40
2023-06-06T08:28:53.692Z,22.40
2023-06-06T08:31:21.225Z,22.40
2023-06-06T08:33:49.186Z,22.40
2023-06-06T08:36:17.115Z,22.50
2023-06-06T08:38:45.984Z,22.50
2023-06-06T08:41:17.787Z,22.50
2023-06-06T08:43:48.098Z,22.50
2023-06-06T08:46:17.926Z,22.60
2023-06-06T08:48:46.228Z,22.60
2023-06-06T08:51:14.159Z,22.60
2023-06-06T08:53:44.620Z,22.60
2023-06-06T08:56:13.118Z,22.70
2023-06-06T08:58:42.980Z,22.80
2023-06-06T09:01:10.868Z,22.80
2023-06-06T09:03:44.262Z,22.90
2023-06-06T09:06:12.912Z,23.00
2023-06-06T09:08:40.641Z,23.00
2023-06-06T09:11:09.363Z,23.10
2023-06-06T09:13:36.618Z,23.10
2023-06-06T09:16:06.002Z,23.10
2023-06-06T09:18:33.484Z,23.20
2023-06-06T09:21:02.002Z,23.30
2023-06-06T09:23:30.794Z,23.40
2023-06-06T09:25:58.523Z,23.40
2023-06-06T09:28:38.696Z,23.50
2023-06-06T09:31:24.189Z,23.50
2023-06-06T09:33:55.082Z,23.60
2023-06-06T09:36:23.649Z,23.70
2023-06-06T09:38:51.417Z,23.70
2023-06-06T09:41:20.992Z,23.80
2023-06-06T09:43:50.155Z,23.70
2023-06-06T09:46:18.897Z,23.80
2023-06-06T09:48:56.797Z,23.90
2023-06-06T09:51:24.130Z,24.00
2023-06-06T09:53:52.388Z,24.00
2023-06-06T09:56:23.915Z,24.00
2023-06-06T09:58:56.561Z,24.10
2023-06-06T10:01:28.333Z,24.10
2023-06-06T10:03:57.788Z,24.10
2023-06-06T10:06:26.303Z,24.20
2023-06-06T10:08:54.988Z,24.20
2023-06-06T10:11:26.019Z,24.20
2023-06-06T10:13:56.627Z,24.20
2023-06-06T10:16:28.005Z,24.20
2023-06-06T10:18:58.730Z,24.20
2023-06-06T10:21:27.150Z,24.20
2023-06-06T10:23:54.976Z,24.20
2023-06-06T10:26:27.771Z,24.20
2023-06-06T10:29:04.000Z,24.20
2023-06-06T10:31:37.409Z,24.30
2023-06-06T10:34:09.347Z,24.30
2023-06-06T10:36:41.909Z,24.40
2023-06-06T10:39:22.100Z,24.50
2023-06-06T10:41:55.346Z,24.60
2023-06-06T10:44:27.801Z,24.60
2023-06-06T10:47:25.333Z,24.70
2023-06-06T10:50:18.524Z,24.80
2023-06-06T10:52:46.939Z,24.90
2023-06-06T10:55:18.216Z,24.90
2023-06-06T10:57:55.893Z,25.00
2023-06-06T11:00:26.922Z,25.10
2023-06-06T11:02:58.925Z,25.20
2023-06-06T11:05:26.681Z,25.10
2023-06-06T11:07:58.807Z,25.10
2023-06-06T11:10:26.331Z,25.10
2023-06-06T11:12:55.972Z,25.20
2023-06-06T11:15:32.683Z,25.10
2023-06-06T11:18:05.152Z,25.20
2023-06-06T11:20:41.226Z,25.10
2023-06-06T11:23:12.260Z,25.10
2023-06-06T11:25:39.991Z,25.10
2023-06-06T11:28:07.906Z,25.10
2023-06-06T11:30:37.432Z,25.10
2023-06-06T11:33:08.797Z,25.00
2023-06-06T11:35:42.367Z,25.00
2023-06-06T11:38:09.998Z,24.90
2023-06-06T11:40:37.533Z,24.80
2023-06-06T11:43:06.287Z,24.80
2023-06-06T11:45:33.897Z,24.80
2023-06-06T11:48:18.026Z,24.80
2023-06-06T11:50:46.832Z,24.80
2023-06-06T11:53:29.059Z,24.90
2023-06-06T11:55:56.803Z,24.90
2023-06-06T11:58:24.934Z,25.00
2023-06-06T12:01:07.249Z,25.00
2023-06-06T12:03:37.192Z,25.00
2023-06-06T12:06:07.092Z,25.00
2023-06-06T12:08:35.882Z,25.00
2023-06-06T12:11:25.748Z,25.00
2023-06-06T12:13:53.543Z,25.00
2023-06-06T12:16:22.540Z,25.10
2023-06-06T12:18:51.988Z,25.10
2023-06-06T12:21:19.568Z,25.20
2023-06-06T12:23:47.762Z,25.20
2023-06-06T12:26:19.727Z,25.20
2023-06-06T12:28:54.916Z,25.30
2023-06-06T12:31:22.760Z,25.20
2023-06-06T12:33:52.501Z,25.30
2023-06-06T12:36:21.386Z,25.30
2023-06-06T12:38:58.286Z,25.40
2023-06-06T12:41:36.600Z,25.40
2023-06-06T12:44:08.446Z,25.50
2023-06-06T12:46:38.666Z,25.50
2023-06-06T12:49:07.457Z,25.60
2023-06-06T12:51:35.467Z,25.60
2023-06-06T12:54:03.004Z,25.60
2023-06-06T12:56:30.945Z,25.70
2023-06-06T12:58:59.723Z,25.60
2023-06-06T13:01:28.392Z,25.60
2023-06-06T13:03:56.240Z,25.60
2023-06-06T13:06:25.022Z,25.50
2023-06-06T13:08:52.319Z,25.60
2023-06-06T13:11:19.787Z,25.60
2023-06-06T13:13:47.114Z,25.60
2023-06-06T13:16:14.602Z,25.50
2023-06-06T13:18:42.339Z,25.50
2023-06-06T13:21:09.989Z,25.50
2023-06-06T13:23:38.984Z,25.50
2023-06-06T13:26:06.770Z,25.40
2023-06-06T13:28:34.041Z,25.30
2023-06-06T13:31:01.653Z,25.30
2023-06-06T13:33:29.129Z,25.30
2023-06-06T13:35:56.509Z,25.20
2023-06-06T13:38:24.520Z,25.20
2023-06-06T13:40:53.209Z,25.10
2023-06-06T13:43:20.647Z,25.10
2023-06-06T13:45:48.105Z,25.00
2023-06-06T13:48:17.746Z,24.90
2023-06-06T13:50:45.024Z,24.90
2023-06-06T13:53:13.386Z,24.80
2023-06-06T13:55:41.399Z,24.70
2023-06-06T13:58:10.129Z,24.70
2023-06-06T14:00:38.096Z,24.60
2023-06-06T14:03:06.040Z,24.60
2023-06-06T14:05:33.419Z,24.60
2023-06-06T14:08:00.741Z,24.50
2023-06-06T14:10:28.012Z,24.50
2023-06-06T14:12:55.360Z,24.50
2023-06-06T14:15:23.958Z,24.50
2023-06-06T14:17:52.129Z,24.40
2023-06-06T14:20:25.997Z,24.40
2023-06-06T14:22:53.298Z,24.30
2023-06-06T14:25:21.907Z,24.30
2023-06-06T14:27:49.394Z,24.30
2023-06-06T14:30:16.722Z,24.30
2023-06-06T14:32:45.900Z,24.30
2023-06-06T14:35:13.548Z,24.30
2023-06-06T14:37:40.876Z,24.30
2023-06-06T14:40:10.261Z,24.30
2023-06-06T14:42:37.606Z,24.30
2023-06-06T14:45:05.670Z,24.30
2023-06-06T14:47:33.097Z,24.30
2023-06-06T14:50:01.740Z,24.30
2023-06-06T14:52:29.234Z,24.30
2023-06-06T14:54:56.643Z,24.20
2023-06-06T14:57:23.931Z,24.20
2023-06-06T14:59:53.558Z,24.20
2023-06-06T15:02:22.356Z,24.20
2023-06-06T15:04:51.396Z,24.20
2023-06-06T15:07:19.963Z,24.10
2023-06-06T15:09:47.241Z,24.10
2023-06-06T15:12:14.493Z,24.10
2023-06-06T15:14:42.535Z,24.00
2023-06-06T15:17:10.518Z,23.90
2023-06-06T15:19:38.268Z,23.90
2023-06-06T15:22:07.218Z,23.80
2023-06-06T15:24:36.233Z,23.70
2023-06-06T15:27:06.830Z,23.70
2023-06-06T15:29:43.675Z,23.70
2023-06-06T15:32:11.716Z,23.70
2023-06-06T15:34:39.435Z,23.70
2023-06-06T15:37:07.333Z,23.60
2023-06-06T15:39:40.431Z,23.70
2023-06-06T15:42:08.173Z,23.70
2023-06-06T15:44:35.427Z,23.50
2023-06-06T15:47:02.718Z,23.50
2023-06-06T15:49:30.025Z,23.50
2023-06-06T15:51:58.827Z,23.50
2023-06-06T15:54:26.102Z,23.50
2023-06-06T15:56:54.705Z,23.60
2023-06-06T15:59:22.015Z,23.60
2023-06-06T16:01:49.441Z,23.60
2023-06-06T16:04:16.938Z,23.60
2023-06-06T16:06:44.239Z,23.60
2023-06-06T16:09:12.051Z,23.60
2023-06-06T16:11:39.332Z,23.50
2023-06-06T16:14:07.934Z,23.50
2023-06-06T16:16:35.821Z,23.50
2023-06-06T16:19:04.997Z,23.50
2023-06-06T16:21:33.056Z,23.40
2023-06-06T16:24:02.033Z,23.50
2023-06-06T16:26:29.337Z,23.50
2023-06-06T16:28:56.617Z,23.40
2023-06-06T16:31:25.313Z,23.40
2023-06-06T16:33:52.616Z,23.40
2023-06-06T16:36:19.884Z,23.30
2023-06-06T16:38:47.158Z,23.30
2023-06-06T16:41:14.397Z,23.30
2023-06-06T16:43:41.676Z,23.30
2023-06-06T16:46:09.031Z,23.30
2023-06-06T16:48:38.049Z,23.30
2023-06-06T16:51:05.612Z,23.30
2023-06-06T16:53:33.049Z,23.30
2023-06-06T16:56:00.314Z,23.30
2023-06-06T16:58:27.573Z,23.30
2023-06-06T17:00:54.918Z,23.30
2023-06-06T17:03:23.681Z,23.30
2023-06-06T17:05:52.462Z,23.20
2023-06-06T17:08:19.793Z,23.20
2023-06-06T17:10:47.368Z,23.20
2023-06-06T17:13:16.826Z,23.20
2023-06-06T17:15:44.098Z,23.20
2023-06-06T17:18:11.438Z,23.20
2023-06-06T17:20:39.875Z,23.10
2023-06-06T17:23:08.487Z,23.00
2023-06-06T17:25:50.586Z,23.00
2023-06-06T17:28:18.918Z,23.00
2023-06-06T17:30:49.841Z,23.00
2023-06-06T17:33:17.113Z,23.00
2023-06-06T17:35:44.505Z,23.00
2023-06-06T17:38:13.088Z,23.00
2023-06-06T17:40:40.959Z,22.90
2023-06-06T17:43:08.935Z,22.90
2023-06-06T17:45:36.250Z,22.90
2023-06-06T17:48:05.445Z,22.90
2023-06-06T17:50:33.168Z,22.90
2023-06-06T17:53:00.589Z,22.90
2023-06-06T17:55:29.186Z,22.90
2023-06-06T17:57:56.443Z,22.90
2023-06-06T18:00:23.897Z,22.80
2023-06-06T18:02:52.039Z,22.80
2023-06-06T18:05:33.107Z,22.80
2023-06-06T18:08:02.893Z,22.70
2023-06-06T18:10:32.047Z,22.70
2023-06-06T18:12:59.583Z,22.70
2023-06-06T18:15:27.193Z,22.70
2023-06-06T18:17:55.226Z,22.70
2023-06-06T18:20:22.663Z,22.60
2023-06-06T18:22:51.031Z,22.60
2023-06-06T18:25:19.410Z,22.50
2023-06-06T18:27:48.313Z,22.50
2023-06-06T18:30:15.840Z,22.60
2023-06-06T18:32:43.400Z,22.50
2023-06-06T18:35:11.174Z,22.50
2023-06-06T18:37:38.505Z,22.50
2023-06-06T18:40:07.437Z,22.50
2023-06-06T18:42:36.436Z,22.50
2023-06-06T18:45:07.129Z,22.50
2023-06-06T18:47:34.512Z,22.50
2023-06-06T18:50:03.425Z,22.50
2023-06-06T18:52:31.101Z,22.40
2023-06-06T18:54:58.484Z,22.40
2023-06-06T18:57:26.266Z,22.40
2023-06-06T18:59:54.768Z,22.30
2023-06-06T19:02:23.618Z,22.30
2023-06-06T19:04:53.610Z,22.30
2023-06-06T19:07:21.189Z,22.30
2023-06-06T19:09:49.113Z,22.30
2023-06-06T19:12:16.517Z,22.20
2023-06-06T19:14:44.246Z,22.20
2023-06-06T19:17:11.692Z,22.20
2023-06-06T19:19:41.266Z,22.20
2023-06-06T19:22:08.691Z,22.20
2023-06-06T19:24:36.050Z,22.20
2023-06-06T19:27:03.590Z,22.20
2023-06-06T19:29:31.042Z,22.20
2023-06-06T19:31:58.496Z,22.10
2023-06-06T19:34:26.757Z,22.10
2023-06-06T19:36:55.774Z,22.10
2023-06-06T19:39:23.248Z,22.10
2023-06-06T19:41:50.792Z,22.10
2023-06-06T19:44:19.760Z,22.10
2023-06-06T19:46:49.431Z,22.00
2023-06-06T19:49:17.925Z,22.00
2023-06-06T19:51:46.503Z,22.00
2023-06-06T19:54:15.285Z,22.00
2023-06-06T19:56:42.635Z,22.00
2023-06-06T19:59:10.103Z,22.00
2023-06-06T20:01:37.602Z,22.00
2023-06-06T20:04:05.490Z,21.90
2023-06-06T20:06:36.426Z,22.00
2023-06-06T20:09:04.159Z,21.90
2023-06-06T20:11:34.221Z,21.90
2023-06-06T20:14:02.051Z,21.90
2023-06-06T20:16:29.653Z,21.90
2023-06-06T20:18:57.084Z,21.90
2023-06-06T20:21:24.448Z,21.80
2023-06-06T20:23:51.811Z,21.80
2023-06-06T20:26:19.248Z,21.80
2023-06-06T20:28:47.923Z,21.80
2023-06-06T20:31:15.475Z,21.80
2023-06-06T20:33:43.428Z,21.80
2023-06-06T20:36:12.539Z,21.80
2023-06-06T20:38:40.438Z,21.80
2023-06-06T20:41:07.825Z,21.70
2023-06-06T20:43:35.801Z,21.70
2023-06-06T20:46:04.754Z,21.70
2023-06-06T20:48:32.182Z,21.70
2023-06-06T20:50:59.699Z,21.70
2023-06-06T20:53:27.164Z,21.70
2023-06-06T20:55:54.755Z,21.70
2023-06-06T20:58:24.304Z,21.70
2023-06-06T21:00:51.673Z,21.70
2023-06-06T21:03:20.705Z,21.70
2023-06-06T21:05:48.116Z,21.70
2023-06-06T21:08:15.929Z,21.70
2023-06-06T21:10:43.420Z,21.70
2023-06-06T21:13:11.099Z,21.70
2023-06-06T21:15:38.409Z,21.70
2023-06-06T21:18:05.922Z,21.70
2023-06-06T21:20:34.752Z,21.70
2023-06-06T21:23:02.690Z,21.70
2023-06-06T21:25:30.044Z,21.70
2023-06-06T21:27:57.359Z,21.70
2023-06-06T21:30:24.616Z,21.60
2023-06-06T21:32:51.994Z,21.70
2023-06-06T21:35:19.424Z,21.70
2023-06-06T21:37:48.005Z,21.70
2023-06-06T21:40:15.452Z,21.70
2023-06-06T21:42:42.717Z,21.70
2023-06-06T21:45:11.283Z,21.70
2023-06-06T21:47:38.756Z,21.70
2023-06-06T21:50:08.120Z,21.70
2023-06-06T21:52:35.888Z,21.70
2023-06-06T21:55:05.378Z,21.70
2023-06-06T21:57:32.836Z,21.70
2023-06-06T22:00:00.388Z,21.70
2023-06-06T22:02:28.937Z,21.60
2023-06-06T22:04:56.481Z,21.60
2023-06-06T22:07:25.718Z,21.60
2023-06-06T22:09:53.178Z,21.60
2023-06-06T22:12:21.866Z,21.60
2023-06-06T22:14:51.034Z,21.60
2023-06-06T22:17:18.443Z,21.60
2023-06-06T22:19:45.882Z,21.60
2023-06-06T22:22:13.330Z,21.60
2023-06-06T22:24:40.752Z,21.60
2023-06-06T22:27:08.791Z,21.60
2023-06-06T22:29:37.456Z,21.60
2023-06-06T22:32:05.637Z,21.60
2023-06-06T22:34:34.266Z,21.60
2023-06-06T22:37:01.601Z,21.50
2023-06-06T22:39:29.012Z,21.50
2023-06-06T22:41:56.314Z,21.50
2023-06-06T22:44:23.647Z,21.50
2023-06-06T22:46:52.316Z,21.50
2023-06-06T22:49:19.678Z,21.50
2023-06-06T22:51:46.970Z,21.50
2023-06-06T22:54:14.342Z,21.40
2023-06-06T22:56:41.607Z,21.40
2023-06-06T22:59:08.961Z,21.40
2023-06-06T23:04:33.871Z,21.40
2023-06-06T23:07:01.849Z,21.30
2023-06-06T23:09:29.678Z,21.30
2023-06-06T23:11:58.437Z,21.20
2023-06-06T23:14:28.130Z,21.20
2023-06-06T23:17:00.494Z,21.20
2023-06-06T23:19:28.106Z,21.20
2023-06-06T23:21:57.133Z,21.20
2023-06-06T23:24:24.721Z,21.20
2023-06-06T23:26:52.308Z,21.20
2023-06-06T23:29:19.981Z,21.20
2023-06-06T23:31:47.690Z,21.20
2023-06-06T23:34:15.435Z,21.10
2023-06-06T23:36:43.119Z,21.00
2023-06-06T23:39:13.753Z,21.00
2023-06-06T23:41:41.354Z,21.00
2023-06-06T23:44:09.005Z,21.00
2023-06-06T23:46:36.703Z,20.90
2023-06-06T23:49:04.456Z,20.90
2023-06-06T23:51:32.176Z,20.90
2023-06-06T23:53:59.785Z,20.90
2023-06-06T23:56:28.822Z,20.80
2023-06-06T23:58:56.465Z,20.80
